createdAt,value
2019-04-16T00:02:58.355Z,9.03
2019-04-16T00:06:12.725Z,8.27
2019-04-16T00:09:29.123Z,8.07
2019-04-16T00:12:45.692Z,8.30
2019-04-16T00:15:50.805Z,8.10
2019-04-16T00:18:58.137Z,7.97
2019-04-16T00:22:19.905Z,8.33
2019-04-16T00:25:25.123Z,9.13
2019-04-16T00:28:31.318Z,9.60
2019-04-16T00:31:37.664Z,9.20
2019-04-16T00:34:44.789Z,8.87
2019-04-16T00:37:51.755Z,8.83
2019-04-16T00:41:00.766Z,8.30
2019-04-16T00:44:03.749Z,8.50
2019-04-16T00:47:08.928Z,8.30
2019-04-16T00:50:15.439Z,8.47
2019-04-16T00:53:20.611Z,8.60
2019-04-16T00:56:25.804Z,9.33
2019-04-16T00:59:30.889Z,8.67
2019-04-16T01:02:36.019Z,9.33
2019-04-16T01:05:41.170Z,8.80
2019-04-16T01:08:54.410Z,9.07
2019-04-16T01:11:53.343Z,8.77
2019-04-16T01:15:02.597Z,8.90
2019-04-16T01:18:09.027Z,8.40
2019-04-16T01:21:14.979Z,8.13
2019-04-16T01:24:21.146Z,8.10
2019-04-16T01:27:38.858Z,8.80
2019-04-16T01:31:01.095Z,8.60
2019-04-16T01:34:24.141Z,9.30
2019-04-16T01:37:57.712Z,9.00
2019-04-16T01:41:08.823Z,8.60
2019-04-16T01:44:14.056Z,9.00
2019-04-16T01:47:19.207Z,9.40
2019-04-16T01:50:24.404Z,8.90
2019-04-16T01:53:29.576Z,8.67
2019-04-16T01:56:34.669Z,9.03
2019-04-16T01:59:39.790Z,9.10
2019-04-16T02:02:46.382Z,8.97
2019-04-16T02:05:54.601Z,9.07
2019-04-16T02:09:01.750Z,9.37
2019-04-16T02:12:07.232Z,9.43
2019-04-16T02:15:12.408Z,8.97
2019-04-16T02:18:17.580Z,9.57
2019-04-16T02:21:23.749Z,9.03
2019-04-16T02:24:28.813Z,8.67
2019-04-16T02:27:34.028Z,9.50
2019-04-16T02:30:39.869Z,8.87
2019-04-16T02:33:45.150Z,9.40
2019-04-16T02:36:50.341Z,9.13
2019-04-16T02:39:57.976Z,9.00
2019-04-16T02:43:06.510Z,9.67
2019-04-16T02:46:09.921Z,9.53
2019-04-16T02:49:15.045Z,9.27
2019-04-16T02:52:39.113Z,9.50
2019-04-16T02:56:07.725Z,9.43
2019-04-16T02:59:16.043Z,9.67
2019-04-16T03:02:38.995Z,8.53
2019-04-16T03:05:47.071Z,9.43
2019-04-16T03:08:52.289Z,9.23
2019-04-16T03:11:57.467Z,8.70
2019-04-16T03:15:02.883Z,9.33
2019-04-16T03:18:08.327Z,9.40
2019-04-16T03:21:13.507Z,9.00
2019-04-16T03:24:18.763Z,9.37
2019-04-16T03:27:23.837Z,9.40
2019-04-16T03:30:28.955Z,8.50
2019-04-16T03:33:34.162Z,9.10
2019-04-16T03:36:39.305Z,8.77
2019-04-16T03:39:44.989Z,8.30
2019-04-16T03:43:10.581Z,8.90
2019-04-16T03:46:15.723Z,8.67
2019-04-16T03:49:20.861Z,9.10
2019-04-16T03:52:25.960Z,9.13
2019-04-16T03:55:31.249Z,8.93
2019-04-16T03:58:38.609Z,9.23
2019-04-16T04:01:45.827Z,8.90
2019-04-16T04:04:50.120Z,9.33
2019-04-16T04:07:55.707Z,8.87
2019-04-16T04:11:00.923Z,8.60
2019-04-16T04:14:06.040Z,8.63
2019-04-16T04:17:12.542Z,8.20
2019-04-16T04:20:19.150Z,8.77
2019-04-16T04:23:25.534Z,9.57
2019-04-16T04:26:31.487Z,10.17
2019-04-16T04:29:36.689Z,10.30
2019-04-16T04:32:41.865Z,8.97
2019-04-16T04:35:47.031Z,9.67
2019-04-16T04:38:52.150Z,10.13
2019-04-16T04:41:57.364Z,9.47
2019-04-16T04:45:08.400Z,9.67
2019-04-16T04:48:11.959Z,10.57
2019-04-16T04:51:17.439Z,11.07
2019-04-16T04:54:23.493Z,10.33
2019-04-16T04:57:31.161Z,10.93
2019-04-16T05:00:37.438Z,9.50
2019-04-16T05:04:05.210Z,9.33
2019-04-16T05:07:10.499Z,8.47
2019-04-16T05:10:15.770Z,8.53
2019-04-16T05:13:23.918Z,8.07
2019-04-16T05:16:27.934Z,8.70
2019-04-16T05:19:33.153Z,8.87
2019-04-16T05:22:38.257Z,8.13
2019-04-16T05:25:43.514Z,8.47
2019-04-16T05:28:48.720Z,8.40
2019-04-16T05:31:54.495Z,7.00
2019-04-16T05:35:00.865Z,7.33
2019-04-16T05:38:06.032Z,8.87
2019-04-16T05:41:13.504Z,9.07
2019-04-16T05:44:18.068Z,8.90
2019-04-16T05:47:23.255Z,9.40
2019-04-16T05:50:29.829Z,8.97
2019-04-16T05:53:37.373Z,9.03
2019-04-16T05:56:47.562Z,8.60
2019-04-16T05:59:52.787Z,8.50
2019-04-16T06:02:57.925Z,8.03
2019-04-16T06:06:03.021Z,8.97
2019-04-16T06:09:12.263Z,7.67
2019-04-16T06:12:16.686Z,8.00
2019-04-16T06:15:40.843Z,9.10
2019-04-16T06:18:55.293Z,8.13
2019-04-16T06:22:31.831Z,8.67
2019-04-16T06:25:47.531Z,8.53
2019-04-16T06:28:59.978Z,8.30
2019-04-16T06:32:35.517Z,8.37
2019-04-16T06:36:05.525Z,8.83
2019-04-16T06:39:15.741Z,8.83
2019-04-16T06:42:25.352Z,9.63
2019-04-16T06:45:41.418Z,9.37
2019-04-16T06:49:17.634Z,10.37
2019-04-16T06:52:59.185Z,9.70
2019-04-16T06:56:23.323Z,9.50
2019-04-16T06:59:34.419Z,9.60
2019-04-16T07:03:01.670Z,10.80
2019-04-16T07:06:21.147Z,9.87
2019-04-16T07:09:41.488Z,7.23
2019-04-16T07:12:39.303Z,7.93
2019-04-16T07:15:45.591Z,9.07
2019-04-16T07:18:50.850Z,7.97
2019-04-16T07:21:55.985Z,8.33
2019-04-16T07:25:04.255Z,8.43
2019-04-16T07:28:15.325Z,8.47
2019-04-16T07:31:33.556Z,8.50
2019-04-16T07:35:01.469Z,8.37
2019-04-16T07:38:35.443Z,8.97
2019-04-16T07:42:08.558Z,8.40
2019-04-16T07:45:26.909Z,7.73
2019-04-16T07:48:46.655Z,8.90
2019-04-16T07:52:13.804Z,9.13
2019-04-16T07:55:30.058Z,8.40
2019-04-16T07:58:35.236Z,8.60
2019-04-16T08:01:40.456Z,9.10
2019-04-16T08:04:45.643Z,8.83
2019-04-16T08:07:52.890Z,9.13
2019-04-16T08:10:58.316Z,9.70
2019-04-16T08:14:08.638Z,8.80
2019-04-16T08:17:10.419Z,9.90
2019-04-16T08:20:20.080Z,9.77
2019-04-16T08:23:43.737Z,9.43
2019-04-16T08:26:48.904Z,9.27
2019-04-16T08:29:54.152Z,8.97
2019-04-16T08:32:59.312Z,8.87
2019-04-16T08:36:04.475Z,10.03
2019-04-16T08:39:13.429Z,9.87
2019-04-16T08:42:18.576Z,9.97
2019-04-16T08:45:23.739Z,10.57
2019-04-16T08:48:28.975Z,11.17
2019-04-16T08:51:37.047Z,10.23
2019-04-16T08:54:41.113Z,9.80
2019-04-16T08:57:47.024Z,10.90
2019-04-16T09:00:52.537Z,10.50
2019-04-16T09:04:02.647Z,11.27
2019-04-16T09:07:12.080Z,11.13
2019-04-16T09:10:19.098Z,10.60
2019-04-16T09:13:25.652Z,11.10
2019-04-16T09:16:32.578Z,11.00
2019-04-16T09:19:39.241Z,10.53
2019-04-16T09:22:49.098Z,11.37
2019-04-16T09:26:12.397Z,10.73
2019-04-16T09:29:23.940Z,10.93
2019-04-16T09:32:47.917Z,10.90
2019-04-16T09:36:18.758Z,11.07
2019-04-16T09:39:39.010Z,11.07
2019-04-16T09:42:44.173Z,11.47
2019-04-16T09:45:49.386Z,11.27
2019-04-16T09:48:54.594Z,11.10
2019-04-16T09:51:59.838Z,10.30
2019-04-16T09:55:05.132Z,10.30
2019-04-16T09:58:17.016Z,10.43
2019-04-16T10:01:24.051Z,10.47
2019-04-16T10:04:29.203Z,10.67
2019-04-16T10:07:34.354Z,11.00
2019-04-16T10:10:39.476Z,11.10
2019-04-16T10:13:44.651Z,10.83
2019-04-16T10:16:49.807Z,10.43
2019-04-16T10:19:55.030Z,10.60
2019-04-16T10:23:01.824Z,9.73
2019-04-16T10:26:06.999Z,10.53
2019-04-16T10:29:15.535Z,10.03
2019-04-16T10:32:20.749Z,10.77
2019-04-16T10:35:26.481Z,11.07
2019-04-16T10:38:36.848Z,10.37
2019-04-16T10:41:56.399Z,10.17
2019-04-16T10:45:09.367Z,11.17
2019-04-16T10:48:33.548Z,9.70
2019-04-16T10:52:06.553Z,11.07
2019-04-16T10:55:27.300Z,10.47
2019-04-16T10:58:55.947Z,10.23
2019-04-16T11:02:38.592Z,11.30
2019-04-16T11:05:56.773Z,10.00
2019-04-16T11:09:00.681Z,10.63
2019-04-16T11:12:07.779Z,10.40
2019-04-16T11:15:16.038Z,10.07
2019-04-16T11:18:21.257Z,10.13
2019-04-16T11:21:27.535Z,10.00
2019-04-16T11:24:32.733Z,11.17
2019-04-16T11:27:37.851Z,9.93
2019-04-16T11:30:48.702Z,11.27
2019-04-16T11:33:53.547Z,10.10
2019-04-16T11:36:58.862Z,11.50
2019-04-16T11:40:05.274Z,10.83
2019-04-16T11:43:10.466Z,11.07
2019-04-16T11:46:15.819Z,11.20
2019-04-16T11:49:21.836Z,11.57
2019-04-16T11:52:27.135Z,10.50
2019-04-16T11:55:32.386Z,10.50
2019-04-16T12:04:02.675Z,12.43
2019-04-16T12:07:31.580Z,11.93
2019-04-16T12:10:41.207Z,10.97
2019-04-16T12:14:09.962Z,11.37
2019-04-16T12:17:19.429Z,12.03
2019-04-16T12:20:44.632Z,11.60
2019-04-16T12:24:18.428Z,10.93
2019-04-16T12:27:43.510Z,12.40
2019-04-16T12:31:01.933Z,11.60
2019-04-16T12:34:13.942Z,11.40
2019-04-16T12:37:37.651Z,11.53
2019-04-16T12:41:01.771Z,11.77
2019-04-16T12:44:26.075Z,10.77
2019-04-16T12:47:35.517Z,12.27
2019-04-16T12:51:02.496Z,11.40
2019-04-16T12:54:26.260Z,9.90
2019-04-16T12:57:49.516Z,9.33
2019-04-16T13:01:03.074Z,11.23
2019-04-16T13:04:14.211Z,11.30
2019-04-16T13:07:34.166Z,11.93
2019-04-16T13:11:13.216Z,10.93
2019-04-16T13:14:37.817Z,12.13
2019-04-16T13:18:01.009Z,12.27
2019-04-16T13:21:34.591Z,10.80
2019-04-16T13:24:43.762Z,10.40
2019-04-16T13:27:50.889Z,11.03
2019-04-16T13:30:56.155Z,11.17
2019-04-16T13:34:01.286Z,11.67
2019-04-16T13:37:07.559Z,12.00
2019-04-16T13:40:14.946Z,10.90
2019-04-16T13:43:23.185Z,11.07
2019-04-16T13:46:29.481Z,11.33
2019-04-16T13:49:46.807Z,11.50
2019-04-16T13:52:56.050Z,11.30
2019-04-16T13:56:26.517Z,10.67
2019-04-16T13:59:50.715Z,10.87
2019-04-16T14:02:59.146Z,12.73
2019-04-16T14:06:09.350Z,12.17
2019-04-16T14:09:11.206Z,12.53
2019-04-16T14:12:16.650Z,12.20
2019-04-16T14:15:31.627Z,11.93
2019-04-16T14:18:32.567Z,11.00
2019-04-16T14:21:37.240Z,11.17
2019-04-16T14:24:42.433Z,10.80
2019-04-16T14:27:47.589Z,10.97
2019-04-16T14:30:52.741Z,13.60
2019-04-16T14:34:03.043Z,10.73
2019-04-16T14:37:08.194Z,9.40
2019-04-16T14:40:17.280Z,11.17
2019-04-16T14:43:29.370Z,9.87
2019-04-16T14:46:33.999Z,11.00
2019-04-16T14:49:39.154Z,10.33
2019-04-16T14:52:44.514Z,10.43
2019-04-16T14:56:00.525Z,11.33
2019-04-16T14:59:30.399Z,10.63
2019-04-16T15:02:42.028Z,9.40
2019-04-16T15:06:17.085Z,9.77
2019-04-16T15:09:32.863Z,9.00
2019-04-16T15:12:55.542Z,8.90
2019-04-16T15:16:22.166Z,9.77
2019-04-16T15:19:28.859Z,10.13
2019-04-16T15:22:45.926Z,9.53
2019-04-16T15:26:09.185Z,10.40
2019-04-16T15:29:20.869Z,10.00
2019-04-16T15:32:46.166Z,10.50
2019-04-16T15:36:01.972Z,9.83
2019-04-16T15:39:14.378Z,9.50
2019-04-16T15:42:48.980Z,10.23
2019-04-16T15:46:26.518Z,9.00
2019-04-16T15:49:40.054Z,8.37
2019-04-16T15:52:51.868Z,7.70
2019-04-16T15:56:28.066Z,9.30
2019-04-16T15:59:56.185Z,8.80
2019-04-16T16:03:19.370Z,8.50
2019-04-16T16:06:25.962Z,8.87
2019-04-16T16:09:50.107Z,9.13
2019-04-16T16:12:55.454Z,8.10
2019-04-16T16:16:00.587Z,8.03
2019-04-16T16:19:10.950Z,8.10
2019-04-16T16:22:12.688Z,7.13
2019-04-16T16:25:18.149Z,8.87
2019-04-16T16:28:23.401Z,7.60
2019-04-16T16:31:33.447Z,7.33
2019-04-16T16:34:35.511Z,8.47
2019-04-16T16:37:40.677Z,8.87
2019-04-16T16:40:49.459Z,7.47
2019-04-16T16:43:52.796Z,7.43
2019-04-16T16:47:06.958Z,7.67
2019-04-16T16:50:17.341Z,7.60
2019-04-16T16:53:31.368Z,8.33
2019-04-16T16:56:47.145Z,7.57
2019-04-16T17:00:29.584Z,10.60
2019-04-16T17:04:11.918Z,7.33
2019-04-16T17:07:18.463Z,5.83
2019-04-16T17:10:23.589Z,6.07
2019-04-16T17:13:28.781Z,5.57
2019-04-16T17:16:33.967Z,6.03
2019-04-16T17:19:39.134Z,5.50
2019-04-16T17:22:44.309Z,5.90
2019-04-16T17:25:51.217Z,5.50
2019-04-16T17:28:56.434Z,5.37
2019-04-16T17:32:01.562Z,5.30
2019-04-16T17:35:07.877Z,4.97
2019-04-16T17:38:13.767Z,5.50
2019-04-16T17:41:25.811Z,5.27
2019-04-16T17:44:49.944Z,5.63
2019-04-16T17:48:09.872Z,5.00
2019-04-16T17:51:34.039Z,5.37
2019-04-16T17:55:02.001Z,5.27
2019-04-16T17:58:10.773Z,5.83
2019-04-16T18:01:33.203Z,5.90
2019-04-16T18:04:56.461Z,6.03
2019-04-16T18:08:20.794Z,5.20
2019-04-16T18:11:45.443Z,5.90
2019-04-16T18:15:28.078Z,5.53
2019-04-16T18:18:49.882Z,6.63
2019-04-16T18:22:17.295Z,6.27
2019-04-16T18:25:54.919Z,6.37
2019-04-16T18:29:04.470Z,6.97
2019-04-16T18:32:33.716Z,6.43
2019-04-16T18:35:44.615Z,5.90
2019-04-16T18:39:11.885Z,7.00
2019-04-16T18:42:35.681Z,7.77
2019-04-16T18:45:59.861Z,7.50
2019-04-16T18:49:10.847Z,6.87
2019-04-16T18:52:16.147Z,7.20
2019-04-16T18:55:21.457Z,7.30
2019-04-16T18:58:26.672Z,7.83
2019-04-16T19:01:33.405Z,8.03
2019-04-16T19:04:38.691Z,8.07
2019-04-16T19:07:43.970Z,7.40
2019-04-16T19:10:50.370Z,6.57
2019-04-16T19:13:55.677Z,7.23
2019-04-16T19:17:00.855Z,6.63
2019-04-16T19:20:06.118Z,7.50
2019-04-16T19:23:11.371Z,7.70
2019-04-16T19:26:16.661Z,7.57
2019-04-16T19:29:21.830Z,7.83
2019-04-16T19:32:27.784Z,8.03
2019-04-16T19:35:33.955Z,8.00
2019-04-16T19:38:40.502Z,7.20
2019-04-16T19:41:45.892Z,7.53
2019-04-16T19:44:51.084Z,7.07
2019-04-16T19:48:00.290Z,7.77
2019-04-16T19:51:03.060Z,8.07
2019-04-16T19:54:08.226Z,6.90
2019-04-16T19:57:15.587Z,6.40
2019-04-16T20:00:22.944Z,7.30
2019-04-16T20:03:30.462Z,7.37
2019-04-16T20:06:34.494Z,6.93
2019-04-16T20:09:39.823Z,7.57
2019-04-16T20:12:45.055Z,7.17
2019-04-16T20:15:51.430Z,7.40
2019-04-16T20:18:56.644Z,8.20
2019-04-16T20:22:01.926Z,13.93
2019-04-16T20:25:07.306Z,12.03
2019-04-16T20:28:15.398Z,9.10
2019-04-16T20:31:19.468Z,6.90
2019-04-16T20:34:24.830Z,6.60
2019-04-16T20:37:29.973Z,7.33
2019-04-16T20:40:35.486Z,7.70
2019-04-16T20:43:40.811Z,7.40
2019-04-16T20:46:45.986Z,6.70
2019-04-16T20:49:51.316Z,6.17
2019-04-16T20:52:56.637Z,5.93
2019-04-16T20:56:01.945Z,5.50
2019-04-16T20:59:08.187Z,5.67
2019-04-16T21:02:13.446Z,5.67
2019-04-16T21:05:22.393Z,5.90
2019-04-16T21:08:25.686Z,5.60
2019-04-16T21:11:31.794Z,10.13
2019-04-16T21:14:36.981Z,11.00
2019-04-16T21:17:42.190Z,7.97
2019-04-16T21:20:50.836Z,8.43
2019-04-16T21:23:54.970Z,6.77
2019-04-16T21:27:00.286Z,7.60
2019-04-16T21:30:12.312Z,7.53
2019-04-16T21:33:21.256Z,6.40
2019-04-16T21:36:39.385Z,7.30
2019-04-16T21:39:54.068Z,6.70
2019-04-16T21:42:59.323Z,7.57
2019-04-16T21:46:04.530Z,6.50
2019-04-16T21:49:09.674Z,9.57
2019-04-16T21:52:14.807Z,10.37
2019-04-16T21:55:19.987Z,9.30
2019-04-16T21:58:25.310Z,7.47
2019-04-16T22:01:41.359Z,7.20
2019-04-16T22:04:46.568Z,6.80
2019-04-16T22:07:53.692Z,6.60
2019-04-16T22:10:58.863Z,6.87
2019-04-16T22:14:04.732Z,6.47
2019-04-16T22:17:10.018Z,7.07
2019-04-16T22:20:15.128Z,6.83
2019-04-16T22:23:20.326Z,6.13
2019-04-16T22:26:27.573Z,6.13
2019-04-16T22:29:32.834Z,5.87
2019-04-16T22:32:37.937Z,6.50
2019-04-16T22:35:43.068Z,6.43
2019-04-16T22:38:52.064Z,6.20
2019-04-16T22:42:06.371Z,5.57
2019-04-16T22:45:22.656Z,6.80
2019-04-16T22:48:27.881Z,5.03
2019-04-16T22:51:33.173Z,6.17
2019-04-16T22:54:38.377Z,5.20
2019-04-16T22:57:43.626Z,6.00
2019-04-16T23:00:48.824Z,7.53
2019-04-16T23:03:54.547Z,7.43
2019-04-16T23:06:59.701Z,8.23
2019-04-16T23:10:05.003Z,7.73
2019-04-16T23:13:10.190Z,7.40
2019-04-16T23:16:15.561Z,6.23
2019-04-16T23:19:21.299Z,6.30
2019-04-16T23:22:26.640Z,6.13
2019-04-16T23:25:31.732Z,5.97
2019-04-16T23:28:39.710Z,6.07
2019-04-16T23:31:43.750Z,5.60
2019-04-16T23:34:48.928Z,6.30
2019-04-16T23:37:58.062Z,5.83
2019-04-16T23:41:01.004Z,5.87
2019-04-16T23:44:31.264Z,5.50
2019-04-16T23:48:01.551Z,5.73
2019-04-16T23:51:10.685Z,4.50
2019-04-16T23:54:23.290Z,4.77
2019-04-16T23:57:36.871Z,5.17
